createdAt,value
2019-04-27T00:03:02.262Z,8.87
2019-04-27T00:08:28.484Z,7.50
2019-04-27T00:13:34.802Z,8.47
2019-04-27T00:19:03.762Z,8.60
2019-04-27T00:24:06.212Z,7.70
2019-04-27T00:29:09.320Z,7.67
2019-04-27T00:34:11.391Z,9.27
2019-04-27T00:39:23.090Z,7.10
2019-04-27T00:44:27.307Z,8.00
2019-04-27T00:49:29.405Z,8.67
2019-04-27T00:54:31.583Z,7.77
2019-04-27T00:59:53.033Z,7.90
2019-04-27T01:04:55.219Z,7.77
2019-04-27T01:09:57.393Z,7.57
2019-04-27T01:14:59.455Z,8.17
2019-04-27T01:20:01.951Z,8.57
2019-04-27T01:25:04.524Z,7.50
2019-04-27T01:30:15.820Z,8.93
2019-04-27T01:35:18.690Z,9.80
2019-04-27T01:40:21.118Z,10.17
2019-04-27T01:45:23.206Z,12.70
2019-04-27T01:50:26.098Z,12.47
2019-04-27T01:55:30.071Z,12.47
2019-04-27T02:01:01.931Z,14.70
2019-04-27T02:06:04.294Z,16.07
2019-04-27T02:11:06.495Z,14.27
2019-04-27T02:16:09.053Z,15.57
2019-04-27T02:21:11.335Z,15.83
2019-04-27T02:26:13.465Z,14.47
2019-04-27T02:31:40.381Z,14.83
2019-04-27T02:36:42.693Z,13.33
2019-04-27T02:41:44.898Z,16.20
2019-04-27T02:46:50.217Z,15.67
2019-04-27T02:52:04.137Z,16.23
2019-04-27T02:57:06.252Z,19.73
2019-04-27T03:02:23.269Z,19.67
2019-04-27T03:07:25.669Z,20.57
2019-04-27T03:12:32.245Z,20.53
2019-04-27T03:18:02.699Z,21.30
2019-04-27T03:23:06.722Z,22.20
2019-04-27T03:28:13.142Z,22.27
2019-04-27T03:33:15.345Z,26.13
2019-04-27T03:38:19.783Z,21.30
2019-04-27T03:43:24.388Z,21.50
2019-04-27T03:48:29.060Z,22.23
2019-04-27T03:53:45.228Z,21.67
2019-04-27T03:58:50.906Z,21.40
2019-04-27T04:03:54.065Z,24.73
2019-04-27T04:08:56.232Z,22.57
2019-04-27T04:14:02.395Z,22.40
2019-04-27T04:19:06.123Z,20.70
2019-04-27T04:24:08.999Z,22.03
2019-04-27T04:29:12.771Z,24.27
2019-04-27T04:34:14.741Z,22.17
2019-04-27T04:39:19.616Z,23.93
2019-04-27T04:44:31.386Z,22.57
2019-04-27T04:49:33.490Z,23.03
2019-04-27T04:54:35.813Z,25.40
2019-04-27T04:59:39.023Z,24.10
2019-04-27T05:04:42.366Z,24.10
2019-04-27T05:09:44.591Z,23.93
2019-04-27T05:14:46.590Z,24.70
2019-04-27T05:19:49.431Z,24.60
2019-04-27T05:25:00.739Z,24.70
2019-04-27T05:30:04.092Z,24.07
2019-04-27T05:35:06.381Z,24.93
2019-04-27T05:40:09.173Z,23.40
2019-04-27T05:45:35.563Z,24.73
2019-04-27T05:50:43.067Z,27.00
2019-04-27T05:55:41.554Z,27.37
2019-04-27T06:00:43.682Z,27.63
2019-04-27T06:05:45.741Z,26.23
2019-04-27T06:10:48.909Z,26.80
2019-04-27T06:15:51.142Z,27.30
2019-04-27T06:20:55.733Z,24.83
2019-04-27T06:25:57.256Z,25.87
2019-04-27T06:30:59.524Z,26.97
2019-04-27T06:36:02.869Z,29.57
2019-04-27T06:41:04.808Z,26.93
2019-04-27T06:46:08.722Z,58.33
2019-04-27T06:51:10.912Z,27.20
2019-04-27T06:56:13.126Z,27.63
2019-04-27T07:01:15.211Z,26.83
2019-04-27T07:06:18.721Z,24.70
2019-04-27T07:11:21.216Z,25.87
2019-04-27T07:16:23.177Z,26.03
2019-04-27T07:21:26.155Z,23.83
2019-04-27T07:26:30.245Z,25.00
2019-04-27T07:31:32.483Z,26.40
2019-04-27T07:36:34.598Z,26.47
2019-04-27T07:41:36.599Z,25.17
2019-04-27T07:46:38.691Z,24.93
2019-04-27T07:51:40.658Z,24.00
2019-04-27T07:56:42.655Z,25.40
2019-04-27T08:01:44.735Z,23.17
2019-04-27T08:06:46.759Z,27.73
2019-04-27T08:11:48.903Z,26.17
2019-04-27T08:16:50.959Z,22.13
2019-04-27T08:21:53.038Z,23.03
2019-04-27T08:27:10.987Z,22.90
2019-04-27T08:32:16.061Z,22.87
2019-04-27T08:37:18.804Z,20.70
2019-04-27T08:42:21.029Z,24.47
2019-04-27T08:47:23.217Z,24.83
2019-04-27T08:52:25.388Z,21.30
2019-04-27T08:57:29.005Z,19.90
2019-04-27T09:02:41.696Z,17.77
2019-04-27T09:07:47.210Z,17.33
2019-04-27T09:13:02.480Z,14.03
2019-04-27T09:18:05.523Z,15.43
2019-04-27T09:23:07.658Z,13.33
2019-04-27T09:28:10.175Z,13.17
2019-04-27T09:33:12.420Z,14.35
2019-04-27T09:38:14.637Z,16.07
2019-04-27T09:43:16.590Z,16.30
2019-04-27T09:48:18.788Z,14.67
2019-04-27T09:53:20.876Z,15.30
2019-04-27T09:58:23.058Z,17.23
2019-04-27T10:03:26.613Z,13.00
2019-04-27T10:08:29.238Z,13.50
2019-04-27T10:13:31.326Z,22.33
2019-04-27T10:18:33.578Z,15.00
2019-04-27T10:23:36.208Z,13.07
2019-04-27T10:28:39.432Z,11.70
2019-04-27T10:33:41.451Z,12.10
2019-04-27T10:38:43.394Z,15.00
2019-04-27T10:43:45.502Z,15.00
2019-04-27T10:48:47.493Z,14.00
2019-04-27T10:53:49.450Z,12.20
2019-04-27T10:58:51.971Z,11.70
2019-04-27T11:04:02.156Z,11.03
2019-04-27T11:09:07.046Z,11.87
2019-04-27T11:14:09.730Z,10.23
2019-04-27T11:19:12.011Z,9.67
2019-04-27T11:24:14.109Z,10.10
2019-04-27T11:29:16.450Z,9.93
2019-04-27T11:34:21.016Z,10.77
2019-04-27T11:39:23.893Z,8.47
2019-04-27T11:44:26.085Z,8.60
2019-04-27T11:49:28.154Z,11.73
2019-04-27T11:54:30.361Z,8.07
2019-04-27T11:59:32.496Z,8.93
2019-04-27T12:04:36.349Z,6.20
2019-04-27T12:09:38.585Z,6.63
2019-04-27T12:14:40.597Z,5.67
2019-04-27T12:19:42.851Z,6.37
2019-04-27T12:24:45.748Z,6.33
2019-04-27T12:30:22.899Z,2.30
2019-04-27T12:35:25.715Z,2.67
2019-04-27T12:40:27.947Z,1.40
2019-04-27T12:45:30.830Z,1.50
2019-04-27T12:50:33.030Z,2.20
2019-04-27T12:55:52.584Z,1.90
2019-04-27T13:00:55.217Z,1.53
2019-04-27T13:05:57.781Z,1.70
2019-04-27T13:10:59.964Z,3.20
2019-04-27T13:16:03.002Z,1.50
2019-04-27T13:21:05.169Z,1.27
2019-04-27T13:26:07.386Z,1.37
2019-04-27T13:31:09.554Z,1.20
2019-04-27T13:36:11.718Z,2.57
2019-04-27T13:41:26.171Z,2.40
2019-04-27T13:46:41.182Z,1.23
2019-04-27T13:51:51.381Z,1.60
2019-04-27T13:56:53.759Z,1.33
2019-04-27T14:01:55.886Z,1.37
2019-04-27T14:06:58.990Z,1.67
2019-04-27T14:12:14.444Z,1.20
2019-04-27T14:17:16.622Z,2.93
2019-04-27T14:22:18.799Z,1.67
2019-04-27T14:27:22.748Z,2.90
2019-04-27T14:32:24.847Z,1.20
2019-04-27T14:37:28.559Z,1.40
2019-04-27T14:42:30.725Z,2.17
2019-04-27T14:47:32.763Z,2.37
2019-04-27T14:52:34.836Z,1.70
2019-04-27T14:57:37.038Z,1.63
2019-04-27T15:02:39.326Z,1.47
2019-04-27T15:07:41.496Z,2.03
2019-04-27T15:12:43.717Z,1.40
2019-04-27T15:17:45.789Z,1.50
2019-04-27T15:22:52.504Z,1.30
2019-04-27T15:27:57.641Z,1.43
2019-04-27T15:33:18.985Z,1.30
2019-04-27T15:38:24.120Z,1.93
2019-04-27T15:43:30.909Z,1.73
2019-04-27T15:48:34.141Z,1.80
2019-04-27T15:53:38.629Z,2.07
2019-04-27T15:58:40.430Z,3.03
2019-04-27T16:03:42.467Z,3.37
2019-04-27T16:08:46.820Z,3.00
2019-04-27T16:13:48.906Z,3.37
2019-04-27T16:18:51.290Z,2.10
2019-04-27T16:23:53.464Z,2.30
2019-04-27T16:28:55.506Z,2.40
2019-04-27T16:34:01.584Z,2.60
2019-04-27T16:39:08.373Z,2.40
2019-04-27T16:44:11.414Z,2.23
2019-04-27T16:49:14.862Z,2.10
2019-04-27T16:54:21.219Z,3.17
2019-04-27T16:59:39.153Z,3.17
2019-04-27T17:04:26.003Z,2.40
2019-04-27T17:09:29.267Z,3.23
2019-04-27T17:14:49.038Z,3.60
2019-04-27T17:19:58.169Z,2.73
2019-04-27T17:25:00.404Z,3.30
2019-04-27T17:30:03.747Z,4.67
2019-04-27T17:35:12.020Z,5.00
2019-04-27T17:40:10.905Z,3.47
2019-04-27T17:45:13.284Z,2.77
2019-04-27T17:50:18.406Z,2.50
2019-04-27T17:55:24.441Z,2.30
2019-04-27T18:00:28.056Z,4.43
2019-04-27T18:05:32.431Z,3.53
2019-04-27T18:10:35.001Z,2.90
2019-04-27T18:15:38.804Z,2.83
2019-04-27T18:20:42.618Z,3.23
2019-04-27T18:25:50.897Z,5.53
2019-04-27T18:31:18.698Z,3.60
2019-04-27T18:36:20.948Z,3.97
2019-04-27T18:41:22.962Z,3.57
2019-04-27T18:46:25.199Z,2.53
2019-04-27T18:51:52.588Z,2.47
2019-04-27T18:57:02.043Z,2.37
2019-04-27T19:01:59.174Z,2.77
2019-04-27T19:07:01.447Z,4.80
2019-04-27T19:12:03.609Z,2.37
2019-04-27T19:17:05.778Z,2.87
2019-04-27T19:22:08.972Z,2.93
2019-04-27T19:27:29.838Z,2.87
2019-04-27T19:32:32.013Z,2.67
2019-04-27T19:37:33.981Z,3.10
2019-04-27T19:42:35.939Z,3.37
2019-04-27T19:47:38.435Z,3.07
2019-04-27T19:52:40.816Z,4.07
2019-04-27T19:57:42.963Z,4.20
2019-04-27T20:02:45.146Z,2.60
2019-04-27T20:07:48.245Z,1.70
2019-04-27T20:12:51.010Z,1.70
2019-04-27T20:17:53.338Z,2.20
2019-04-27T20:22:55.430Z,2.53
2019-04-27T20:27:57.451Z,1.50
2019-04-27T20:33:00.936Z,1.90
2019-04-27T20:38:03.248Z,3.60
2019-04-27T20:43:05.304Z,2.00
2019-04-27T20:48:07.406Z,1.20
2019-04-27T20:53:13.018Z,1.03
2019-04-27T20:58:15.131Z,1.23
2019-04-27T21:03:28.529Z,1.70
2019-04-27T21:08:32.783Z,2.50
2019-04-27T21:13:34.868Z,2.10
2019-04-27T21:18:36.965Z,2.77
2019-04-27T21:23:39.168Z,2.60
2019-04-27T21:28:43.222Z,3.83
2019-04-27T21:33:45.107Z,4.83
2019-04-27T21:38:47.077Z,2.60
2019-04-27T21:43:49.145Z,3.27
2019-04-27T21:48:51.191Z,2.40
2019-04-27T21:54:09.043Z,3.10
2019-04-27T21:59:11.163Z,3.13
2019-04-27T22:04:13.697Z,2.80
2019-04-27T22:09:17.028Z,3.57
2019-04-27T22:14:19.216Z,3.77
2019-04-27T22:19:22.329Z,3.30
2019-04-27T22:24:44.135Z,3.37
2019-04-27T22:29:46.185Z,3.33
2019-04-27T22:34:48.267Z,3.20
2019-04-27T22:45:27.075Z,3.87
2019-04-27T22:50:31.184Z,3.87
2019-04-27T22:55:35.816Z,3.27
2019-04-27T23:00:51.829Z,3.00
2019-04-27T23:05:54.035Z,3.47
2019-04-27T23:10:57.428Z,3.37
2019-04-27T23:16:01.612Z,3.50
2019-04-27T23:21:03.791Z,4.53
2019-04-27T23:26:08.421Z,4.07
2019-04-27T23:31:17.371Z,3.17
2019-04-27T23:36:21.435Z,4.50
2019-04-27T23:41:23.667Z,4.37
2019-04-27T23:46:25.775Z,3.57
2019-04-27T23:51:46.378Z,5.03
2019-04-27T23:56:48.534Z,6.03
